Time;durP1;ratioP1;P1;durP2;ratioP2;P2;SDS_P1;SDS_P2;PMS_P1;PMS_P2;Temp;Humidity;BMP_temperature;BMP_pressure;BME280_temperature;BME280_humidity;BME280_pressure;Samples;Min_cycle;Max_cycle;Signal;HPM_P1;HPM_P2
2023/06/30 00:01:37;;;;;;;8.15;5.90;;;21.90;99.90;;;;;;4932052;28;20590;-74
2023/06/30 00:04:04;;;;;;;9.63;5.93;;;21.90;99.90;;;;;;4916180;28;20434;-74
2023/06/30 00:06:30;;;;;;;8.35;5.90;;;21.80;99.90;;;;;;4913076;28;20433;-74
2023/06/30 00:08:57;;;;;;;9.27;5.70;;;21.80;99.90;;;;;;4914929;28;20438;-74
2023/06/30 00:11:23;;;;;;;8.18;5.82;;;21.70;99.90;;;;;;4922251;28;20436;-74
2023/06/30 00:13:55;;;;;;;7.05;5.53;;;21.70;99.90;;;;;;4912728;28;20425;-74
2023/06/30 00:16:21;;;;;;;7.38;5.43;;;21.70;99.90;;;;;;4927625;28;20563;-74
2023/06/30 00:18:47;;;;;;;6.65;5.20;;;21.70;99.90;;;;;;4944625;28;20435;-74
2023/06/30 00:21:14;;;;;;;6.13;5.43;;;21.60;99.90;;;;;;4946210;28;20536;-74
2023/06/30 00:23:40;;;;;;;8.38;5.40;;;21.70;99.90;;;;;;4919063;28;20520;-74
2023/06/30 00:26:06;;;;;;;7.00;5.05;;;21.70;99.90;;;;;;4934245;28;20434;-74
2023/06/30 00:28:33;;;;;;;8.00;5.47;;;21.70;99.90;;;;;;4936772;28;20425;-75
2023/06/30 00:31:00;;;;;;;7.25;5.38;;;21.70;99.90;;;;;;4923383;28;20486;-75
2023/06/30 00:33:26;;;;;;;8.37;4.80;;;21.60;99.90;;;;;;4918886;28;20427;-75
2023/06/30 00:35:53;;;;;;;6.53;5.07;;;21.50;99.90;;;;;;4920635;28;20453;-75
2023/06/30 00:38:19;;;;;;;8.52;5.65;;;21.50;99.90;;;;;;4904338;28;20419;-75
2023/06/30 00:40:45;;;;;;;8.50;5.20;;;21.50;99.90;;;;;;4911527;28;20436;-75
2023/06/30 00:43:12;;;;;;;6.18;5.10;;;21.50;99.90;;;;;;4934234;28;20427;-74
2023/06/30 00:45:38;;;;;;;8.30;5.40;;;21.40;99.90;;;;;;4917689;28;20425;-74
2023/06/30 00:48:05;;;;;;;9.30;5.75;;;21.40;99.90;;;;;;4944693;28;20486;-74
2023/06/30 00:50:31;;;;;;;9.45;5.43;;;21.40;99.90;;;;;;4923446;28;20467;-72
2023/06/30 00:52:59;;;;;;;6.05;5.10;;;21.40;99.90;;;;;;4909080;28;20445;-73
2023/06/30 00:55:26;;;;;;;9.40;5.40;;;21.40;99.90;;;;;;4903740;28;21425;-73
2023/06/30 00:57:53;;;;;;;7.22;5.15;;;21.40;99.90;;;;;;4932720;28;21160;-73
2023/06/30 01:00:20;;;;;;;7.22;5.15;;;21.40;99.90;;;;;;4916649;28;20432;-73
2023/06/30 01:03:31;;;;;;;7.32;5.45;;;21.30;99.90;;;;;;4923157;28;20416;-72
2023/06/30 01:06:31;;;;;;;6.70;5.07;;;21.30;99.90;;;;;;4938951;28;20498;-73
2023/06/30 01:09:13;;;;;;;10.55;5.15;;;21.20;99.90;;;;;;4920223;28;20423;-73
2023/06/30 01:11:41;;;;;;;7.15;5.50;;;21.20;99.90;;;;;;4932749;28;20923;-73
2023/06/30 01:14:10;;;;;;;6.32;5.38;;;21.30;99.90;;;;;;4917887;28;20428;-72
2023/06/30 01:16:42;;;;;;;6.57;5.78;;;21.30;99.90;;;;;;4915712;28;20436;-73
2023/06/30 01:19:31;;;;;;;7.35;5.30;;;21.40;99.90;;;;;;4920253;28;20422;-73
2023/06/30 01:22:13;;;;;;;8.33;5.70;;;21.50;99.90;;;;;;4917111;28;20421;-73
2023/06/30 01:24:43;;;;;;;9.27;5.50;;;21.60;99.90;;;;;;4918078;28;20942;-73
2023/06/30 01:27:12;;;;;;;7.30;5.50;;;21.60;99.90;;;;;;4934088;28;20424;-73
2023/06/30 01:29:43;;;;;;;7.23;5.30;;;21.70;99.90;;;;;;4918549;28;21150;-73
2023/06/30 01:32:16;;;;;;;7.28;5.30;;;21.70;99.90;;;;;;4932281;28;20548;-74
2023/06/30 01:34:44;;;;;;;7.03;5.20;;;21.80;99.90;;;;;;4949128;28;20454;-75
2023/06/30 01:37:11;;;;;;;6.97;5.32;;;21.80;99.90;;;;;;4918270;28;21003;-75
2023/06/30 01:39:37;;;;;;;7.97;5.20;;;21.80;99.90;;;;;;4917307;28;20426;-75
2023/06/30 01:42:06;;;;;;;8.25;5.93;;;21.90;99.90;;;;;;4915587;28;20512;-75
2023/06/30 01:44:37;;;;;;;9.50;5.40;;;21.80;99.90;;;;;;4923103;28;20429;-75
2023/06/30 01:47:06;;;;;;;10.00;5.53;;;21.80;99.90;;;;;;4915618;28;20437;-75
2023/06/30 01:49:38;;;;;;;5.90;5.03;;;21.80;99.90;;;;;;4945195;28;20542;-75
2023/06/30 01:52:08;;;;;;;11.30;5.40;;;21.80;99.90;;;;;;4945873;28;20431;-75
2023/06/30 01:54:34;;;;;;;7.10;5.10;;;21.80;99.90;;;;;;4941080;28;20431;-73
2023/06/30 01:57:00;;;;;;;11.70;5.47;;;21.90;99.90;;;;;;4929342;28;20419;-73
2023/06/30 01:59:27;;;;;;;6.43;5.30;;;21.90;99.90;;;;;;4919326;28;20729;-73
2023/06/30 02:01:53;;;;;;;8.80;5.38;;;21.80;99.90;;;;;;4912758;28;20428;-73
2023/06/30 02:04:19;;;;;;;7.68;5.00;;;21.80;99.90;;;;;;4915672;28;21021;-72
2023/06/30 02:06:46;;;;;;;8.82;5.15;;;21.80;99.90;;;;;;4925198;28;20432;-73
2023/06/30 02:09:13;;;;;;;7.05;5.32;;;21.80;99.90;;;;;;4928291;28;20435;-73
2023/06/30 02:11:39;;;;;;;6.20;5.13;;;21.80;99.90;;;;;;4914965;28;20506;-74
2023/06/30 02:14:06;;;;;;;6.05;5.15;;;21.70;99.90;;;;;;4930273;28;21392;-74
2023/06/30 02:16:33;;;;;;;6.88;5.47;;;21.70;99.90;;;;;;4916648;28;20427;-74
2023/06/30 02:18:59;;;;;;;7.15;5.30;;;21.70;99.90;;;;;;4937302;28;20425;-73
2023/06/30 02:21:26;;;;;;;7.68;5.38;;;21.80;99.90;;;;;;4919612;28;20419;-73
2023/06/30 02:23:52;;;;;;;8.07;5.38;;;21.80;99.90;;;;;;4933095;28;20910;-73
2023/06/30 02:26:18;;;;;;;8.07;5.47;;;21.80;99.90;;;;;;4917403;28;20482;-73
2023/06/30 02:28:44;;;;;;;9.85;5.75;;;21.80;99.90;;;;;;4924126;28;20490;-73
2023/06/30 02:31:11;;;;;;;9.35;5.65;;;21.80;99.90;;;;;;4922001;28;21140;-73
2023/06/30 02:33:38;;;;;;;7.33;5.20;;;21.80;99.90;;;;;;4940258;28;20878;-73
2023/06/30 02:36:05;;;;;;;9.88;5.32;;;21.90;99.90;;;;;;4928565;28;20421;-73
2023/06/30 02:38:32;;;;;;;8.13;5.35;;;21.90;99.90;;;;;;4925991;28;20419;-73
2023/06/30 02:40:59;;;;;;;7.47;5.28;;;21.90;99.90;;;;;;4924611;28;20436;-73
2023/06/30 02:43:26;;;;;;;8.70;5.57;;;21.90;99.90;;;;;;4922252;28;21133;-73
2023/06/30 02:45:52;;;;;;;7.95;6.10;;;22.00;99.90;;;;;;4936006;28;20877;-73
2023/06/30 02:48:18;;;;;;;7.50;5.38;;;22.00;99.90;;;;;;4948827;28;20465;-73
2023/06/30 02:50:44;;;;;;;7.00;5.50;;;22.10;99.90;;;;;;4921183;28;20439;-73
2023/06/30 02:53:10;;;;;;;8.50;5.50;;;22.10;99.90;;;;;;4918903;28;20923;-73
2023/06/30 02:55:37;;;;;;;11.68;5.50;;;22.20;99.90;;;;;;4940037;28;20428;-73
2023/06/30 02:58:03;;;;;;;6.93;5.45;;;22.30;99.90;;;;;;4937307;28;21076;-73
2023/06/30 03:00:29;;;;;;;7.88;5.28;;;22.20;99.90;;;;;;4930534;28;20427;-73
2023/06/30 03:02:55;;;;;;;9.40;5.47;;;22.20;99.90;;;;;;4923561;28;20927;-73
2023/06/30 03:05:22;;;;;;;7.50;5.32;;;22.20;99.90;;;;;;4918608;28;20504;-73
2023/06/30 03:07:48;;;;;;;11.13;5.60;;;22.20;99.90;;;;;;4939702;28;20437;-73
2023/06/30 03:10:14;;;;;;;8.63;5.67;;;22.20;99.90;;;;;;4944673;28;21108;-73
2023/06/30 03:12:40;;;;;;;7.15;5.30;;;22.20;99.90;;;;;;4916512;28;20591;-72
2023/06/30 03:15:07;;;;;;;8.40;5.60;;;22.30;99.90;;;;;;5002454;28;20940;-73
2023/06/30 03:17:33;;;;;;;7.60;5.38;;;22.30;99.90;;;;;;4946513;28;20428;-72
2023/06/30 03:20:00;;;;;;;7.25;5.30;;;22.30;99.90;;;;;;4920472;28;20456;-72
2023/06/30 03:22:26;;;;;;;6.60;5.35;;;22.30;99.90;;;;;;4931444;28;20421;-73
2023/06/30 03:24:52;;;;;;;8.40;5.43;;;22.30;99.90;;;;;;4926998;28;20664;-73
2023/06/30 03:27:18;;;;;;;8.95;5.43;;;22.30;99.90;;;;;;4955942;28;20421;-73
2023/06/30 03:29:44;;;;;;;8.98;5.47;;;22.40;99.90;;;;;;4923444;28;20424;-73
2023/06/30 03:32:11;;;;;;;6.32;5.22;;;22.40;99.90;;;;;;4939769;28;20863;-73
2023/06/30 03:34:37;;;;;;;7.90;5.03;;;22.40;99.90;;;;;;4922607;28;20436;-73
2023/06/30 03:37:03;;;;;;;6.55;5.22;;;22.50;99.90;;;;;;4929581;28;20527;-73
2023/06/30 03:39:30;;;;;;;9.48;5.57;;;22.50;99.90;;;;;;4927907;28;20405;-72
2023/06/30 03:41:56;;;;;;;9.43;5.10;;;22.60;99.90;;;;;;4933425;28;20438;-72
2023/06/30 03:44:22;;;;;;;11.95;5.95;;;22.60;99.90;;;;;;4922794;28;20505;-72
2023/06/30 03:46:48;;;;;;;7.93;5.65;;;22.60;99.90;;;;;;4919225;28;20434;-72
2023/06/30 03:49:15;;;;;;;8.82;5.70;;;22.60;99.90;;;;;;4917818;28;20463;-72
2023/06/30 03:51:41;;;;;;;8.15;5.13;;;22.70;99.90;;;;;;4933511;28;20435;-72
2023/06/30 03:54:08;;;;;;;5.55;4.93;;;22.70;99.90;;;;;;4921494;28;20906;-72
2023/06/30 03:56:34;;;;;;;6.75;5.13;;;22.70;99.90;;;;;;4933446;28;20739;-72
2023/06/30 03:59:00;;;;;;;6.85;5.03;;;22.80;99.90;;;;;;4927840;28;20854;-72
2023/06/30 04:01:27;;;;;;;6.95;5.05;;;22.80;99.90;;;;;;4922946;28;20450;-72
2023/06/30 04:03:53;;;;;;;7.72;5.15;;;22.80;99.90;;;;;;4919255;28;20794;-72
2023/06/30 04:06:19;;;;;;;9.70;5.53;;;22.80;99.90;;;;;;4918202;28;20455;-72
2023/06/30 04:08:45;;;;;;;6.70;5.03;;;22.80;99.90;;;;;;4924424;28;20786;-72
2023/06/30 04:11:12;;;;;;;13.07;5.40;;;22.90;99.90;;;;;;4922061;28;20525;-73
2023/06/30 04:13:38;;;;;;;7.82;4.97;;;22.90;99.90;;;;;;4920329;28;21036;-73
2023/06/30 04:16:04;;;;;;;8.50;5.07;;;22.90;99.90;;;;;;4920723;28;20441;-73
2023/06/30 04:18:30;;;;;;;6.40;4.93;;;23.00;99.90;;;;;;4916166;28;20461;-73
2023/06/30 04:20:57;;;;;;;6.57;4.77;;;23.10;99.90;;;;;;4914745;28;20435;-74
2023/06/30 04:23:24;;;;;;;8.20;4.93;;;23.20;99.90;;;;;;4925976;28;20418;-73
2023/06/30 04:25:50;;;;;;;6.10;5.00;;;23.20;99.90;;;;;;4925462;28;21610;-74
2023/06/30 04:28:17;;;;;;;6.13;4.90;;;23.30;99.90;;;;;;4948997;28;20799;-74
2023/06/30 04:30:43;;;;;;;8.27;4.93;;;23.40;99.90;;;;;;4921074;28;20438;-74
2023/06/30 04:33:09;;;;;;;9.05;5.10;;;23.50;99.90;;;;;;4921855;28;20706;-74
2023/06/30 04:35:35;;;;;;;5.88;4.68;;;23.60;99.90;;;;;;4922472;28;21031;-73
2023/06/30 04:38:02;;;;;;;9.50;4.90;;;23.70;99.90;;;;;;4913985;28;20936;-73
2023/06/30 04:40:28;;;;;;;7.85;4.82;;;23.80;99.90;;;;;;4913597;28;20427;-74
2023/06/30 04:42:55;;;;;;;6.77;4.90;;;23.80;99.90;;;;;;4923964;28;20441;-74
2023/06/30 04:45:21;;;;;;;7.55;4.82;;;24.00;99.90;;;;;;4916286;28;20518;-73
2023/06/30 04:47:47;;;;;;;9.00;4.82;;;24.00;99.90;;;;;;4911923;28;21023;-73
2023/06/30 04:50:13;;;;;;;8.13;4.70;;;24.10;99.90;;;;;;4919535;28;20476;-73
2023/06/30 04:52:40;;;;;;;7.88;4.65;;;24.10;99.90;;;;;;4914013;28;21244;-73
2023/06/30 04:55:06;;;;;;;6.22;4.78;;;24.10;99.90;;;;;;4914741;28;20415;-73
2023/06/30 04:57:33;;;;;;;6.90;5.10;;;24.10;99.90;;;;;;4911376;28;20965;-73
2023/06/30 05:00:00;;;;;;;7.13;4.83;;;24.10;99.90;;;;;;4916559;28;20542;-73
2023/06/30 05:02:26;;;;;;;6.43;4.95;;;24.20;99.90;;;;;;4920732;28;20545;-73
2023/06/30 05:04:52;;;;;;;7.65;4.95;;;24.10;99.90;;;;;;4903483;28;20452;-73
2023/06/30 05:07:19;;;;;;;6.47;4.60;;;24.20;99.90;;;;;;4909173;28;20466;-72
2023/06/30 05:09:46;;;;;;;6.95;4.95;;;24.20;99.90;;;;;;4947815;28;20972;-72
2023/06/30 05:12:14;;;;;;;5.90;4.90;;;24.30;99.90;;;;;;4919277;28;21514;-73
2023/06/30 05:14:41;;;;;;;6.82;5.20;;;24.30;99.90;;;;;;4931496;28;20421;-74
2023/06/30 05:17:07;;;;;;;7.80;4.90;;;24.30;99.90;;;;;;4916630;28;20423;-73
2023/06/30 05:19:33;;;;;;;7.28;5.10;;;24.40;99.90;;;;;;4919697;28;20854;-73
2023/06/30 05:22:00;;;;;;;9.50;4.85;;;24.50;99.90;;;;;;4919899;28;20466;-73
2023/06/30 05:24:26;;;;;;;6.10;4.90;;;24.50;99.90;;;;;;4911998;28;20419;-73
2023/06/30 05:26:53;;;;;;;8.73;4.70;;;24.50;99.90;;;;;;4922049;28;20557;-74
2023/06/30 05:29:20;;;;;;;6.63;4.82;;;24.50;99.90;;;;;;4928102;28;20524;-73
2023/06/30 05:31:46;;;;;;;5.88;4.63;;;24.50;99.90;;;;;;4922971;28;20424;-74
2023/06/30 05:34:15;;;;;;;7.28;4.75;;;24.60;99.90;;;;;;4956596;28;20841;-74
2023/06/30 05:36:44;;;;;;;7.78;4.80;;;24.70;99.90;;;;;;4922072;28;20418;-73
2023/06/30 05:39:12;;;;;;;6.53;4.72;;;24.70;99.90;;;;;;4919241;28;20442;-73
2023/06/30 05:41:38;;;;;;;8.90;5.45;;;24.70;99.90;;;;;;4977611;28;20435;-73
2023/06/30 05:44:06;;;;;;;7.97;5.22;;;24.80;99.90;;;;;;4945027;28;20537;-73
2023/06/30 05:46:34;;;;;;;6.05;5.00;;;24.90;99.90;;;;;;4917234;28;20424;-74
2023/06/30 05:49:05;;;;;;;7.97;5.17;;;24.90;99.90;;;;;;4934539;28;21215;-74
2023/06/30 05:51:33;;;;;;;9.80;5.30;;;25.00;99.90;;;;;;4918411;28;20805;-74
2023/06/30 05:54:02;;;;;;;6.88;4.80;;;25.10;99.90;;;;;;4919984;28;20441;-73
2023/06/30 05:56:29;;;;;;;7.18;4.82;;;25.10;99.90;;;;;;4945567;28;20938;-73
2023/06/30 05:58:57;;;;;;;5.57;4.95;;;25.10;99.90;;;;;;4927735;28;20431;-73
2023/06/30 06:01:23;;;;;;;8.32;5.28;;;25.20;99.90;;;;;;4919299;28;20538;-73
2023/06/30 06:03:50;;;;;;;8.25;4.90;;;25.20;99.90;;;;;;4947949;28;20431;-73
2023/06/30 06:06:16;;;;;;;8.87;4.80;;;25.30;99.90;;;;;;4926143;28;20442;-73
2023/06/30 06:08:49;;;;;;;9.93;5.30;;;25.40;99.90;;;;;;4923550;28;20548;-73
2023/06/30 06:11:15;;;;;;;8.48;4.97;;;25.40;99.90;;;;;;4927224;28;20432;-73
2023/06/30 06:13:42;;;;;;;7.60;4.90;;;25.50;99.90;;;;;;4920670;28;20430;-74
2023/06/30 06:16:08;;;;;;;8.65;5.22;;;25.60;99.90;;;;;;4912681;28;20416;-73
2023/06/30 06:18:35;;;;;;;8.38;5.32;;;25.60;99.90;;;;;;4923805;28;20510;-73
2023/06/30 06:21:04;;;;;;;8.00;5.10;;;25.60;99.90;;;;;;4898869;28;20426;-74
2023/06/30 06:23:31;;;;;;;8.07;5.37;;;25.70;99.90;;;;;;4920250;28;20432;-73
2023/06/30 06:25:57;;;;;;;10.93;5.50;;;25.80;99.90;;;;;;4919833;28;20441;-74
2023/06/30 06:28:23;;;;;;;9.38;5.28;;;25.80;99.90;;;;;;4925097;28;20439;-74
2023/06/30 06:30:49;;;;;;;7.18;4.80;;;25.80;99.90;;;;;;4919467;28;20511;-73
2023/06/30 06:33:16;;;;;;;7.00;5.10;;;25.90;99.90;;;;;;4954560;28;20420;-73
2023/06/30 06:35:42;;;;;;;8.15;5.13;;;25.90;99.90;;;;;;4927962;28;20435;-73
2023/06/30 06:38:09;;;;;;;9.98;5.75;;;26.00;99.90;;;;;;4925886;28;20428;-74
2023/06/30 06:40:35;;;;;;;8.07;4.90;;;26.10;99.90;;;;;;4903511;28;20489;-74
2023/06/30 06:43:01;;;;;;;6.37;4.80;;;26.20;99.90;;;;;;4925831;28;20430;-74
2023/06/30 06:45:28;;;;;;;7.85;5.60;;;26.30;99.90;;;;;;4920091;28;20427;-73
2023/06/30 06:48:27;;;;;;;8.23;5.30;;;26.30;99.90;;;;;;4937701;28;20435;-73
2023/06/30 06:51:03;;;;;;;7.43;5.18;;;26.40;99.90;;;;;;4947655;28;20425;-73
2023/06/30 06:53:33;;;;;;;7.93;5.32;;;26.40;99.90;;;;;;4929462;28;20420;-73
2023/06/30 06:56:00;;;;;;;7.68;5.22;;;26.50;99.90;;;;;;4929055;28;20502;-73
2023/06/30 06:58:35;;;;;;;9.88;5.30;;;26.50;99.90;;;;;;4916783;28;20426;-74
2023/06/30 07:01:02;;;;;;;9.38;5.50;;;26.60;99.90;;;;;;4936982;28;20752;-74
2023/06/30 07:03:28;;;;;;;8.32;5.32;;;26.70;99.90;;;;;;4944902;28;20416;-74
2023/06/30 07:05:56;;;;;;;8.77;5.22;;;26.80;99.90;;;;;;4935479;28;21173;-74
2023/06/30 07:08:22;;;;;;;7.57;5.20;;;26.80;99.90;;;;;;4919011;28;20485;-73
2023/06/30 07:10:50;;;;;;;9.13;5.38;;;26.80;99.90;;;;;;4936425;28;20433;-74
2023/06/30 07:13:20;;;;;;;6.82;5.05;;;26.90;99.90;;;;;;4919498;28;20443;-74
2023/06/30 07:15:48;;;;;;;11.20;5.47;;;27.00;99.90;;;;;;4916860;28;20528;-73
2023/06/30 07:18:18;;;;;;;10.05;5.35;;;27.10;99.90;;;;;;4929999;28;20408;-73
2023/06/30 07:20:49;;;;;;;9.80;5.28;;;27.10;99.90;;;;;;4919475;28;20517;-75
2023/06/30 07:23:16;;;;;;;8.43;5.10;;;27.20;99.90;;;;;;4917366;28;20474;-75
2023/06/30 07:25:44;;;;;;;9.57;5.25;;;27.30;99.90;;;;;;4912522;28;20480;-74
2023/06/30 07:28:11;;;;;;;9.27;5.57;;;27.30;99.90;;;;;;4919421;28;20463;-75
2023/06/30 07:30:37;;;;;;;8.47;5.27;;;27.40;99.90;;;;;;4931681;28;20422;-73
2023/06/30 07:33:03;;;;;;;9.80;5.53;;;27.50;99.90;;;;;;4948267;28;20430;-75
2023/06/30 07:35:30;;;;;;;9.63;5.70;;;27.60;99.90;;;;;;4918779;28;20431;-73
2023/06/30 07:37:56;;;;;;;9.80;5.20;;;27.60;99.90;;;;;;4925154;28;20839;-75
2023/06/30 07:40:22;;;;;;;8.68;5.60;;;27.70;99.90;;;;;;4925213;28;20423;-74
2023/06/30 07:42:48;;;;;;;8.95;5.40;;;27.70;99.90;;;;;;4913475;28;20419;-74
2023/06/30 07:45:17;;;;;;;9.02;5.43;;;27.70;99.90;;;;;;4924199;28;20502;-74
2023/06/30 07:47:45;;;;;;;8.85;5.25;;;27.80;99.90;;;;;;4919728;28;20514;-74
2023/06/30 07:50:14;;;;;;;11.82;5.57;;;27.90;99.90;;;;;;4927672;28;20453;-73
2023/06/30 07:52:47;;;;;;;9.33;5.43;;;28.00;99.90;;;;;;4915198;28;20415;-72
2023/06/30 07:55:18;;;;;;;8.98;5.38;;;28.00;99.90;;;;;;4930367;28;20473;-72
2023/06/30 07:57:47;;;;;;;10.27;5.45;;;28.10;99.90;;;;;;4917928;28;20433;-73
2023/06/30 08:00:28;;;;;;;10.65;5.80;;;28.10;99.90;;;;;;4913455;28;21324;-72
2023/06/30 08:02:55;;;;;;;8.23;4.95;;;28.20;99.90;;;;;;4902168;28;20887;-72
2023/06/30 08:05:22;;;;;;;13.35;5.38;;;28.40;99.90;;;;;;4924305;28;20414;-72
2023/06/30 08:07:48;;;;;;;8.25;5.38;;;28.40;99.90;;;;;;4928789;28;20447;-72
2023/06/30 08:10:15;;;;;;;9.32;5.40;;;28.30;99.90;;;;;;4909720;28;20418;-72
2023/06/30 08:12:41;;;;;;;8.02;5.50;;;28.50;99.90;;;;;;4922050;28;20708;-72
2023/06/30 08:15:08;;;;;;;9.48;5.25;;;28.70;99.90;;;;;;4916844;28;20422;-72
2023/06/30 08:17:34;;;;;;;9.45;5.40;;;28.80;99.90;;;;;;4943396;28;20419;-72
2023/06/30 08:20:00;;;;;;;9.48;5.82;;;28.80;99.90;;;;;;4951804;28;20420;-72
2023/06/30 08:22:27;;;;;;;9.90;5.30;;;28.90;99.90;;;;;;4944685;28;20415;-72
2023/06/30 08:24:54;;;;;;;11.43;5.20;;;28.90;99.90;;;;;;4943214;28;21230;-72
2023/06/30 08:27:20;;;;;;;8.32;5.20;;;29.00;99.90;;;;;;4923920;28;20514;-72
2023/06/30 08:29:48;;;;;;;11.07;5.05;;;29.20;99.90;;;;;;4931223;28;20453;-72
2023/06/30 08:32:14;;;;;;;8.15;5.35;;;29.20;99.90;;;;;;4942218;28;20468;-72
2023/06/30 08:34:40;;;;;;;8.98;5.13;;;29.20;99.90;;;;;;4940676;28;20971;-72
2023/06/30 08:37:07;;;;;;;9.00;4.85;;;29.40;99.90;;;;;;4912919;28;20474;-72
2023/06/30 08:39:33;;;;;;;9.40;4.93;;;29.60;99.90;;;;;;4952241;28;20948;-72
2023/06/30 08:42:00;;;;;;;10.35;5.40;;;29.60;99.90;;;;;;4922207;28;20451;-72
2023/06/30 08:44:27;;;;;;;10.15;5.00;;;29.70;99.90;;;;;;4919523;28;20435;-72
2023/06/30 08:46:56;;;;;;;9.60;5.20;;;29.70;99.90;;;;;;4920120;28;20420;-72
2023/06/30 08:49:24;;;;;;;8.15;5.00;;;29.80;99.90;;;;;;4923370;28;20536;-72
2023/06/30 08:51:57;;;;;;;9.95;5.00;;;29.80;99.90;;;;;;4933701;28;20435;-72
2023/06/30 08:54:24;;;;;;;9.18;5.10;;;29.80;99.90;;;;;;4943783;28;20438;-72
2023/06/30 08:56:53;;;;;;;10.52;5.05;;;29.90;99.90;;;;;;4921041;28;20428;-72
2023/06/30 08:59:20;;;;;;;6.72;4.85;;;30.00;99.90;;;;;;4920048;28;20423;-72
2023/06/30 09:01:47;;;;;;;11.48;5.13;;;30.10;99.90;;;;;;4920419;28;20453;-72
2023/06/30 09:04:15;;;;;;;9.13;4.85;;;30.20;99.90;;;;;;4917580;28;21109;-72
2023/06/30 09:06:48;;;;;;;9.05;5.18;;;30.20;99.90;;;;;;4942014;28;20465;-72
2023/06/30 09:09:35;;;;;;;7.30;4.88;;;30.30;99.90;;;;;;4932882;28;20437;-72
2023/06/30 09:12:02;;;;;;;6.90;4.53;;;30.30;99.90;;;;;;4922395;28;20504;-72
2023/06/30 09:14:33;;;;;;;12.27;5.15;;;30.40;99.90;;;;;;4949457;28;20766;-72
2023/06/30 09:17:03;;;;;;;8.25;4.93;;;30.50;99.90;;;;;;4922898;28;20420;-72
2023/06/30 09:19:30;;;;;;;9.20;4.88;;;30.40;99.90;;;;;;4922614;28;20463;-72
2023/06/30 09:21:59;;;;;;;8.63;4.90;;;30.50;99.90;;;;;;4944925;28;20965;-72
2023/06/30 09:24:26;;;;;;;7.45;4.65;;;30.50;99.90;;;;;;4924664;28;20446;-72
2023/06/30 09:26:53;;;;;;;9.00;4.82;;;30.70;99.90;;;;;;4918883;28;20425;-72
2023/06/30 09:29:23;;;;;;;8.60;4.70;;;30.90;99.90;;;;;;4917415;28;20448;-72
2023/06/30 09:31:59;;;;;;;7.72;4.85;;;30.90;99.90;;;;;;4934342;28;22975;-72
2023/06/30 09:34:25;;;;;;;7.55;4.40;;;31.30;99.90;;;;;;4915200;28;20420;-72
2023/06/30 09:36:54;;;;;;;9.13;4.95;;;31.50;99.90;;;;;;4928561;28;20423;-72
2023/06/30 09:39:22;;;;;;;6.35;4.45;;;31.40;99.90;;;;;;4929426;28;21088;-72
2023/06/30 09:41:50;;;;;;;7.88;4.57;;;31.40;99.90;;;;;;4930176;28;20446;-72
2023/06/30 09:44:22;;;;;;;10.73;4.95;;;31.20;99.90;;;;;;4923344;28;20936;-72
2023/06/30 09:46:54;;;;;;;8.98;5.03;;;31.30;99.90;;;;;;4936541;28;20419;-72
2023/06/30 09:49:30;;;;;;;9.23;5.00;;;31.40;99.90;;;;;;4925139;28;20538;-72
2023/06/30 09:52:01;;;;;;;11.65;4.82;;;31.40;99.90;;;;;;4931975;28;20938;-72
2023/06/30 09:54:30;;;;;;;9.15;4.82;;;31.40;99.90;;;;;;4925718;28;20949;-72
2023/06/30 09:57:06;;;;;;;7.07;4.70;;;31.40;99.90;;;;;;4919924;28;20553;-72
2023/06/30 09:59:33;;;;;;;10.00;5.00;;;31.50;99.90;;;;;;4924433;28;20415;-72
2023/06/30 10:02:00;;;;;;;10.13;4.77;;;31.50;99.90;;;;;;4921346;28;20822;-72
2023/06/30 10:04:30;;;;;;;10.73;4.80;;;31.40;99.90;;;;;;4917604;28;20869;-72
2023/06/30 10:06:57;;;;;;;10.23;5.00;;;31.50;99.90;;;;;;4941739;28;20512;-72
2023/06/30 10:09:25;;;;;;;11.63;5.05;;;31.30;99.90;;;;;;4933543;28;20423;-72
2023/06/30 10:11:54;;;;;;;10.15;4.88;;;31.40;99.90;;;;;;4917577;28;20436;-72
2023/06/30 10:14:29;;;;;;;9.43;4.50;;;31.40;99.90;;;;;;4921669;28;20449;-72
2023/06/30 10:16:57;;;;;;;9.18;4.97;;;31.60;99.90;;;;;;4921780;28;20428;-72
2023/06/30 10:19:25;;;;;;;7.90;4.50;;;31.60;99.90;;;;;;4977604;28;20402;-72
2023/06/30 10:21:53;;;;;;;9.75;4.40;;;31.70;99.90;;;;;;4938666;28;20421;-72
2023/06/30 10:24:26;;;;;;;8.75;4.65;;;31.70;99.90;;;;;;4929118;28;20483;-72
2023/06/30 10:26:58;;;;;;;8.40;4.60;;;31.70;99.90;;;;;;4924305;29;20531;-72
2023/06/30 10:29:25;;;;;;;7.38;4.40;;;31.70;99.90;;;;;;4927034;29;20447;-72
2023/06/30 10:31:51;;;;;;;11.32;4.72;;;31.70;99.90;;;;;;4922538;28;20993;-72
2023/06/30 10:34:18;;;;;;;10.02;4.65;;;31.70;99.90;;;;;;4931678;28;20487;-72
2023/06/30 10:36:46;;;;;;;8.20;4.45;;;31.60;99.90;;;;;;4926315;29;20473;-72
2023/06/30 10:39:13;;;;;;;8.35;4.60;;;31.60;99.90;;;;;;4929296;28;20507;-73
2023/06/30 10:41:50;;;;;;;10.27;4.60;;;31.60;99.90;;;;;;4926580;28;20547;-72
2023/06/30 10:44:20;;;;;;;9.65;4.47;;;31.60;99.90;;;;;;4925848;29;21055;-72
2023/06/30 10:46:56;;;;;;;10.00;4.70;;;31.40;99.90;;;;;;4923209;29;20510;-72
2023/06/30 10:49:38;;;;;;;7.20;4.40;;;31.30;99.90;;;;;;4938711;28;20912;-72
2023/06/30 10:52:23;;;;;;;6.63;4.60;;;31.20;99.90;;;;;;4971201;28;20594;-72
2023/06/30 10:54:50;;;;;;;7.88;4.68;;;31.20;99.90;;;;;;4918071;29;22716;-72
2023/06/30 10:57:28;;;;;;;9.75;4.78;;;31.30;99.90;;;;;;4927434;28;20510;-72
2023/06/30 11:00:10;;;;;;;8.88;4.80;;;31.20;99.90;;;;;;4948383;28;20436;-72
2023/06/30 11:02:58;;;;;;;7.75;4.53;;;31.10;99.90;;;;;;4922616;28;20439;-72
2023/06/30 11:05:31;;;;;;;7.55;4.53;;;31.00;99.90;;;;;;4922456;28;20891;-72
2023/06/30 11:08:10;;;;;;;10.90;4.63;;;31.10;99.90;;;;;;4929829;28;20424;-72
2023/06/30 11:10:46;;;;;;;8.15;4.65;;;31.10;99.90;;;;;;4913198;28;20425;-72
2023/06/30 11:13:14;;;;;;;12.70;4.80;;;31.10;99.90;;;;;;4933479;28;20439;-72
2023/06/30 11:15:47;;;;;;;10.45;4.85;;;31.00;99.90;;;;;;4923078;28;20832;-72
2023/06/30 11:18:21;;;;;;;9.05;4.72;;;31.00;99.90;;;;;;4916968;28;20425;-72
2023/06/30 11:21:05;;;;;;;14.15;4.72;;;31.10;99.90;;;;;;4943792;28;20957;-72
2023/06/30 11:23:37;;;;;;;9.35;4.75;;;31.10;99.90;;;;;;4943538;28;21412;-72
2023/06/30 11:26:18;;;;;;;9.50;4.47;;;30.90;99.90;;;;;;4917734;28;20443;-72
2023/06/30 11:28:48;;;;;;;8.68;4.40;;;31.00;99.90;;;;;;4939281;28;21383;-72
2023/06/30 11:31:17;;;;;;;11.77;4.68;;;31.00;99.90;;;;;;4936974;28;20415;-72
2023/06/30 11:33:45;;;;;;;9.70;4.82;;;31.10;99.90;;;;;;4921585;29;20919;-72
2023/06/30 11:36:18;;;;;;;8.07;4.78;;;31.00;99.90;;;;;;4926217;28;20497;-72
2023/06/30 11:38:53;;;;;;;9.47;4.57;;;31.00;99.90;;;;;;4920752;28;20453;-73
2023/06/30 11:41:21;;;;;;;9.00;4.80;;;31.10;99.90;;;;;;4955429;28;20777;-72
2023/06/30 11:43:55;;;;;;;8.93;4.65;;;31.00;99.90;;;;;;4913698;29;20481;-72
2023/06/30 11:46:23;;;;;;;10.73;5.07;;;30.90;99.90;;;;;;4919553;29;20431;-72
2023/06/30 11:48:49;;;;;;;6.53;4.50;;;31.00;99.90;;;;;;4920034;28;20960;-72
2023/06/30 11:51:17;;;;;;;8.20;4.53;;;31.00;99.90;;;;;;4925433;28;20525;-72
2023/06/30 11:53:48;;;;;;;8.70;4.30;;;31.10;99.90;;;;;;4945403;28;20954;-78
2023/06/30 11:56:17;;;;;;;8.25;4.60;;;31.10;99.90;;;;;;4920798;28;20982;-79
2023/06/30 11:58:51;;;;;;;8.45;4.57;;;31.10;99.90;;;;;;4929693;28;20419;-79
2023/06/30 12:01:19;;;;;;;8.52;4.70;;;31.00;99.90;;;;;;4963661;28;20772;-79
2023/06/30 12:03:52;;;;;;;8.20;4.00;;;30.90;99.90;;;;;;4932697;28;20431;-78
2023/06/30 12:06:28;;;;;;;8.93;4.68;;;31.00;99.90;;;;;;4923037;28;20424;-78
2023/06/30 12:08:54;;;;;;;7.47;4.15;;;31.00;99.90;;;;;;4912441;28;21137;-78
2023/06/30 12:11:23;;;;;;;6.80;4.05;;;31.10;99.90;;;;;;5005289;28;20455;-78
2023/06/30 12:13:50;;;;;;;9.10;4.30;;;31.20;99.90;;;;;;4923726;29;20503;-79
2023/06/30 12:16:17;;;;;;;10.82;4.45;;;31.20;99.90;;;;;;4920850;28;20472;-79
2023/06/30 12:18:45;;;;;;;10.97;4.47;;;31.10;99.90;;;;;;4922991;29;20831;-78
2023/06/30 12:21:14;;;;;;;10.57;4.05;;;31.10;99.90;;;;;;4898131;29;21159;-78
2023/06/30 12:23:45;;;;;;;12.05;3.95;;;31.10;99.90;;;;;;4939112;28;20427;-77
2023/06/30 12:26:13;;;;;;;9.85;3.90;;;31.20;99.90;;;;;;4916911;28;20447;-76
2023/06/30 12:28:41;;;;;;;9.30;3.70;;;31.10;99.90;;;;;;4925392;28;20427;-76
2023/06/30 12:31:07;;;;;;;7.35;3.78;;;31.10;99.90;;;;;;4916854;28;20439;-76
2023/06/30 12:33:36;;;;;;;7.32;3.55;;;31.10;99.90;;;;;;4919416;28;20429;-77
2023/06/30 12:36:06;;;;;;;7.30;3.92;;;31.20;99.90;;;;;;5001775;28;20434;-78
2023/06/30 12:38:33;;;;;;;5.93;3.80;;;31.30;99.90;;;;;;4918985;29;20426;-78
2023/06/30 12:40:59;;;;;;;6.93;3.95;;;31.10;99.90;;;;;;4914004;28;20780;-78
2023/06/30 12:43:27;;;;;;;5.35;3.80;;;31.00;99.90;;;;;;4935918;28;20431;-78
2023/06/30 12:45:53;;;;;;;7.13;3.63;;;31.20;99.90;;;;;;4930682;28;20474;-78
2023/06/30 12:48:19;;;;;;;6.80;3.70;;;31.10;99.90;;;;;;4948894;28;20423;-78
2023/06/30 12:50:45;;;;;;;7.07;3.53;;;31.20;99.90;;;;;;4935600;28;20433;-78
2023/06/30 12:53:13;;;;;;;6.75;3.63;;;31.10;99.90;;;;;;4921779;28;20510;-78